Time;durP1;ratioP1;P1;durP2;ratioP2;P2;SDS_P1;SDS_P2;PMS_P1;PMS_P2;Temp;Humidity;BMP_temperature;BMP_pressure;BME280_temperature;BME280_humidity;BME280_pressure;Samples;Min_cycle;Max_cycle;Signal;HPM_P1;HPM_P2
2022/08/21 00:00:07;;;;;;;7.70;2.72;;;;;;;;;;4986876;28;20054;-77
2022/08/21 00:02:33;;;;;;;8.25;3.55;;;;;;;;;;4997736;28;20018;-77
2022/08/21 00:04:59;;;;;;;7.90;2.80;;;;;;;;;;4991268;28;20031;-78
2022/08/21 00:07:26;;;;;;;4.82;2.42;;;;;;;;;;4986625;28;20031;-76
2022/08/21 00:09:52;;;;;;;16.15;3.53;;;;;;;;;;4990148;28;20034;-75
2022/08/21 00:12:21;;;;;;;6.53;3.08;;;;;;;;;;4990333;28;20042;-74
2022/08/21 00:14:51;;;;;;;9.52;3.03;;;;;;;;;;4990118;28;20081;-76
2022/08/21 00:17:17;;;;;;;5.72;2.75;;;;;;;;;;4998468;28;20084;-75
2022/08/21 00:19:43;;;;;;;11.73;3.72;;;;;;;;;;4987793;28;20030;-74
2022/08/21 00:22:09;;;;;;;6.95;2.90;;;;;;;;;;4979105;28;20086;-78
2022/08/21 00:24:35;;;;;;;6.43;3.45;;;;;;;;;;4990940;28;20521;-76
2022/08/21 00:27:01;;;;;;;7.57;3.13;;;;;;;;;;4992885;28;20030;-77
2022/08/21 00:29:27;;;;;;;6.38;2.70;;;;;;;;;;4987251;28;20062;-76
2022/08/21 00:31:53;;;;;;;7.60;3.00;;;;;;;;;;4986973;28;20110;-78
2022/08/21 00:34:19;;;;;;;6.72;2.70;;;;;;;;;;4986610;28;20041;-77
2022/08/21 00:36:45;;;;;;;5.80;2.80;;;;;;;;;;4987507;28;20022;-77
2022/08/21 00:39:12;;;;;;;6.72;2.80;;;;;;;;;;4989221;28;20023;-77
2022/08/21 00:41:39;;;;;;;5.10;2.47;;;;;;;;;;5002407;28;20027;-76
2022/08/21 00:44:07;;;;;;;10.70;2.90;;;;;;;;;;4988167;28;20030;-76
2022/08/21 00:46:33;;;;;;;13.35;3.17;;;;;;;;;;5000493;28;20027;-78
2022/08/21 00:48:59;;;;;;;8.10;3.20;;;;;;;;;;4984795;28;20031;-76
2022/08/21 00:51:28;;;;;;;10.00;2.72;;;;;;;;;;4994950;28;20030;-79
2022/08/21 00:53:57;;;;;;;12.23;3.08;;;;;;;;;;4995025;28;20038;-77
2022/08/21 00:56:26;;;;;;;4.60;2.60;;;;;;;;;;4985550;28;20035;-76
2022/08/21 00:58:52;;;;;;;12.23;2.92;;;;;;;;;;4986595;28;20019;-77
2022/08/21 01:01:18;;;;;;;8.73;3.45;;;;;;;;;;4987118;28;20057;-77
2022/08/21 01:03:45;;;;;;;7.38;3.55;;;;;;;;;;4985965;28;20044;-78
2022/08/21 01:06:11;;;;;;;9.00;4.00;;;;;;;;;;4986548;28;20023;-76
2022/08/21 01:08:38;;;;;;;5.32;2.88;;;;;;;;;;4986979;28;20019;-78
2022/08/21 01:11:05;;;;;;;5.32;2.95;;;;;;;;;;4989007;28;20079;-76
2022/08/21 01:13:33;;;;;;;7.50;3.20;;;;;;;;;;4990489;28;20093;-77
2022/08/21 01:16:00;;;;;;;5.63;2.72;;;;;;;;;;5001541;28;20027;-78
2022/08/21 01:18:26;;;;;;;5.55;2.72;;;;;;;;;;4986518;28;20035;-77
2022/08/21 01:21:12;;;;;;;8.20;3.22;;;;;;;;;;4996513;28;20026;-76
2022/08/21 01:23:41;;;;;;;10.48;3.35;;;;;;;;;;4985181;28;20019;-78
2022/08/21 01:26:07;;;;;;;8.00;3.47;;;;;;;;;;5001217;28;20042;-75
2022/08/21 01:28:35;;;;;;;9.38;2.83;;;;;;;;;;4995556;28;20050;-79
2022/08/21 01:31:02;;;;;;;9.48;3.08;;;;;;;;;;4990015;28;20038;-76
2022/08/21 01:33:31;;;;;;;7.93;2.70;;;;;;;;;;4990525;28;20037;-77
2022/08/21 01:35:57;;;;;;;8.02;2.60;;;;;;;;;;4987391;28;20030;-77
2022/08/21 01:38:24;;;;;;;5.40;3.05;;;;;;;;;;4990132;28;20159;-77
2022/08/21 01:40:50;;;;;;;11.30;3.60;;;;;;;;;;4993189;28;20048;-77
2022/08/21 01:43:16;;;;;;;7.82;3.92;;;;;;;;;;4991113;28;20023;-77
2022/08/21 01:45:42;;;;;;;8.45;2.95;;;;;;;;;;4996397;28;20023;-77
2022/08/21 01:48:08;;;;;;;6.25;2.95;;;;;;;;;;4983633;28;20035;-77
2022/08/21 01:50:35;;;;;;;6.90;2.65;;;;;;;;;;4986247;28;20047;-78
2022/08/21 01:53:01;;;;;;;10.90;3.55;;;;;;;;;;4988212;28;20034;-76
2022/08/21 01:55:27;;;;;;;10.35;5.40;;;;;;;;;;4992710;28;20031;-76
2022/08/21 01:57:53;;;;;;;6.05;2.83;;;;;;;;;;4990620;28;20034;-76
2022/08/21 02:00:22;;;;;;;8.15;3.20;;;;;;;;;;4989461;28;20038;-79
2022/08/21 02:02:49;;;;;;;7.15;3.05;;;;;;;;;;4988554;28;20026;-77
2022/08/21 02:05:15;;;;;;;7.97;2.90;;;;;;;;;;4984518;28;20049;-76
2022/08/21 02:07:46;;;;;;;6.43;2.92;;;;;;;;;;4989068;28;20050;-76
2022/08/21 02:10:13;;;;;;;13.18;2.90;;;;;;;;;;4989206;28;20054;-76
2022/08/21 02:12:39;;;;;;;9.35;3.00;;;;;;;;;;5000052;28;20039;-77
2022/08/21 02:15:06;;;;;;;10.40;3.92;;;;;;;;;;4990584;28;20033;-81
2022/08/21 02:17:39;;;;;;;8.57;2.90;;;;;;;;;;4999480;28;20118;-78
2022/08/21 02:20:05;;;;;;;9.68;3.58;;;;;;;;;;4988723;28;20031;-77
2022/08/21 02:22:32;;;;;;;6.22;2.45;;;;;;;;;;4980616;28;20019;-77
2022/08/21 02:24:58;;;;;;;9.65;3.53;;;;;;;;;;4987483;28;20058;-75
2022/08/21 02:27:24;;;;;;;11.25;3.72;;;;;;;;;;4988338;28;20091;-78
2022/08/21 02:29:51;;;;;;;10.23;3.00;;;;;;;;;;5003682;28;20065;-76
2022/08/21 02:32:17;;;;;;;4.90;2.67;;;;;;;;;;4996192;28;20059;-76
2022/08/21 02:34:43;;;;;;;6.82;3.25;;;;;;;;;;4994040;28;20031;-76
2022/08/21 02:37:09;;;;;;;6.28;2.80;;;;;;;;;;4989216;28;20474;-77
2022/08/21 02:39:35;;;;;;;7.97;2.33;;;;;;;;;;4989377;28;20023;-76
2022/08/21 02:42:01;;;;;;;10.63;3.53;;;;;;;;;;4987915;28;20058;-76
2022/08/21 02:44:27;;;;;;;6.18;3.35;;;;;;;;;;4987283;28;20482;-76
2022/08/21 02:46:53;;;;;;;8.02;3.38;;;;;;;;;;4988738;28;20029;-77
2022/08/21 02:49:19;;;;;;;5.32;2.63;;;;;;;;;;4975949;28;20030;-77
2022/08/21 02:51:45;;;;;;;5.40;3.03;;;;;;;;;;4984357;28;20031;-76
2022/08/21 02:54:11;;;;;;;8.20;2.75;;;;;;;;;;4967827;28;20046;-78
2022/08/21 02:56:37;;;;;;;9.90;2.58;;;;;;;;;;4981575;28;20107;-78
2022/08/21 02:59:04;;;;;;;12.25;3.08;;;;;;;;;;4996852;28;20400;-76
2022/08/21 03:01:30;;;;;;;7.45;2.65;;;;;;;;;;4988525;28;20106;-75
2022/08/21 03:03:56;;;;;;;8.73;2.72;;;;;;;;;;4988495;28;20030;-76
2022/08/21 03:06:24;;;;;;;7.38;2.88;;;;;;;;;;4979283;28;20037;-76
2022/08/21 03:08:53;;;;;;;6.80;3.05;;;;;;;;;;4987333;28;20023;-76
2022/08/21 03:11:20;;;;;;;10.82;3.08;;;;;;;;;;4988247;28;20046;-79
2022/08/21 03:13:46;;;;;;;7.05;2.70;;;;;;;;;;4967384;29;20046;-76
2022/08/21 03:16:12;;;;;;;5.40;2.72;;;;;;;;;;4971147;28;20029;-76
2022/08/21 03:18:39;;;;;;;11.00;3.20;;;;;;;;;;4986720;28;20039;-76
2022/08/21 03:21:05;;;;;;;7.20;3.45;;;;;;;;;;4986631;28;20493;-76
2022/08/21 03:23:31;;;;;;;6.40;2.80;;;;;;;;;;4988597;28;20027;-77
2022/08/21 03:25:58;;;;;;;5.28;2.85;;;;;;;;;;4976913;28;20051;-77
2022/08/21 03:28:24;;;;;;;11.10;3.38;;;;;;;;;;4968652;29;20027;-75
2022/08/21 03:30:51;;;;;;;6.78;3.50;;;;;;;;;;4968833;29;20038;-76
2022/08/21 03:33:18;;;;;;;9.77;2.80;;;;;;;;;;4975130;28;20111;-78
2022/08/21 03:35:46;;;;;;;8.30;3.45;;;;;;;;;;4993236;28;20030;-76
2022/08/21 03:38:13;;;;;;;9.65;3.33;;;;;;;;;;4977401;28;20063;-76
2022/08/21 03:40:39;;;;;;;5.32;2.90;;;;;;;;;;4988128;28;20026;-75
2022/08/21 03:43:08;;;;;;;9.05;3.55;;;;;;;;;;4987092;28;20023;-76
2022/08/21 03:45:34;;;;;;;9.32;2.95;;;;;;;;;;4987600;28;20023;-76
2022/08/21 03:48:02;;;;;;;8.68;2.78;;;;;;;;;;4986929;28;20039;-77
2022/08/21 03:50:33;;;;;;;6.50;2.80;;;;;;;;;;4987250;28;20035;-76
2022/08/21 03:52:59;;;;;;;9.30;2.78;;;;;;;;;;4990404;28;20026;-76
2022/08/21 03:55:26;;;;;;;7.97;3.15;;;;;;;;;;5005094;28;20023;-76
2022/08/21 03:57:52;;;;;;;8.25;3.92;;;;;;;;;;4995105;28;20033;-77
2022/08/21 04:00:19;;;;;;;7.60;2.53;;;;;;;;;;4988080;28;20421;-76
2022/08/21 04:02:45;;;;;;;8.07;2.70;;;;;;;;;;4986917;28;20026;-76
2022/08/21 04:05:12;;;;;;;13.38;4.85;;;;;;;;;;4988352;28;20046;-77
2022/08/21 04:07:39;;;;;;;13.95;3.00;;;;;;;;;;4981393;28;20034;-76
2022/08/21 04:10:06;;;;;;;7.63;2.55;;;;;;;;;;5002688;28;20478;-77
2022/08/21 04:12:33;;;;;;;4.47;2.50;;;;;;;;;;4987133;28;20042;-78
2022/08/21 04:14:59;;;;;;;7.05;2.42;;;;;;;;;;4993734;28;20035;-78
2022/08/21 04:17:25;;;;;;;8.45;3.08;;;;;;;;;;4998112;28;20490;-77
2022/08/21 04:19:51;;;;;;;8.43;2.80;;;;;;;;;;4994935;28;20084;-78
2022/08/21 04:22:17;;;;;;;8.23;2.80;;;;;;;;;;4993374;28;20038;-77
2022/08/21 04:24:43;;;;;;;9.07;3.88;;;;;;;;;;4988459;28;20430;-75
2022/08/21 04:27:09;;;;;;;7.57;3.00;;;;;;;;;;4999031;28;20033;-76
2022/08/21 04:29:35;;;;;;;5.40;2.67;;;;;;;;;;4993593;28;20065;-76
2022/08/21 04:32:01;;;;;;;11.20;3.28;;;;;;;;;;4996747;28;20031;-79
2022/08/21 04:34:28;;;;;;;8.82;2.88;;;;;;;;;;4984354;28;20023;-76
2022/08/21 04:36:54;;;;;;;9.60;3.53;;;;;;;;;;4994300;28;20030;-78
2022/08/21 04:39:20;;;;;;;7.90;4.18;;;;;;;;;;4989830;28;20027;-76
2022/08/21 04:41:46;;;;;;;10.10;3.03;;;;;;;;;;4988926;28;20054;-77
2022/08/21 04:44:12;;;;;;;11.48;2.92;;;;;;;;;;4990071;28;20022;-75
2022/08/21 04:46:38;;;;;;;6.57;2.50;;;;;;;;;;4991227;28;20113;-78
2022/08/21 04:49:04;;;;;;;6.90;2.65;;;;;;;;;;4988983;28;20038;-76
2022/08/21 04:51:33;;;;;;;10.18;3.78;;;;;;;;;;4994319;28;20037;-77
2022/08/21 04:54:01;;;;;;;9.48;2.72;;;;;;;;;;4993673;28;20023;-77
2022/08/21 04:56:31;;;;;;;7.47;2.90;;;;;;;;;;4973954;28;20023;-76
2022/08/21 04:58:58;;;;;;;9.48;3.10;;;;;;;;;;4994247;28;20026;-76
2022/08/21 05:01:26;;;;;;;11.75;2.95;;;;;;;;;;4996612;28;20054;-78
2022/08/21 05:03:55;;;;;;;8.05;2.67;;;;;;;;;;4991508;28;20023;-76
2022/08/21 05:06:21;;;;;;;6.70;2.95;;;;;;;;;;4992265;28;20027;-77
2022/08/21 05:08:48;;;;;;;10.98;3.13;;;;;;;;;;5002789;28;20026;-76
2022/08/21 05:11:15;;;;;;;7.15;3.13;;;;;;;;;;4997737;28;20065;-76
2022/08/21 05:13:41;;;;;;;8.65;3.67;;;;;;;;;;4987847;28;20090;-77
2022/08/21 05:16:07;;;;;;;11.25;3.38;;;;;;;;;;4989534;28;20028;-76
2022/08/21 05:18:33;;;;;;;6.57;3.00;;;;;;;;;;4990484;28;20372;-76
2022/08/21 05:20:59;;;;;;;6.20;2.80;;;;;;;;;;4990211;28;20027;-76
2022/08/21 05:23:25;;;;;;;4.70;2.80;;;;;;;;;;4991248;28;20078;-76
2022/08/21 05:25:52;;;;;;;8.75;3.40;;;;;;;;;;4986876;28;20078;-78
2022/08/21 05:28:18;;;;;;;8.05;3.63;;;;;;;;;;4971723;29;20031;-77
2022/08/21 05:30:45;;;;;;;12.95;3.15;;;;;;;;;;4998224;28;20029;-77
2022/08/21 05:33:14;;;;;;;20.35;3.30;;;;;;;;;;4989616;28;20031;-76
2022/08/21 05:35:40;;;;;;;10.07;4.28;;;;;;;;;;4990394;28;20031;-78
2022/08/21 05:38:07;;;;;;;10.82;3.08;;;;;;;;;;4990044;28;20061;-78
2022/08/21 05:40:33;;;;;;;5.47;2.60;;;;;;;;;;4991427;28;20034;-77
2022/08/21 05:43:00;;;;;;;10.23;2.97;;;;;;;;;;4985484;28;20030;-76
2022/08/21 05:45:28;;;;;;;5.35;2.90;;;;;;;;;;4975206;28;20034;-76
2022/08/21 05:47:54;;;;;;;10.23;2.70;;;;;;;;;;4991298;28;20023;-77
2022/08/21 05:50:21;;;;;;;8.60;2.75;;;;;;;;;;4997702;28;20046;-79
2022/08/21 05:52:47;;;;;;;9.00;2.50;;;;;;;;;;4989940;28;20038;-76
2022/08/21 05:55:13;;;;;;;9.73;2.80;;;;;;;;;;4989607;28;20082;-77
2022/08/21 05:57:41;;;;;;;7.32;2.85;;;;;;;;;;4990261;28;20019;-77
2022/08/21 06:00:16;;;;;;;7.40;3.60;;;;;;;;;;5005819;28;20050;-79
2022/08/21 06:02:42;;;;;;;;;;;;;;;;;;4990350;28;20031;-77
2022/08/21 06:05:08;;;;;;;9.65;2.63;;;;;;;;;;4990552;28;19907;-76
2022/08/21 06:07:34;;;;;;;5.72;2.53;;;;;;;;;;4997953;28;20030;-77
2022/08/21 06:10:01;;;;;;;10.82;2.97;;;;;;;;;;4989400;28;20027;-77
2022/08/21 06:12:27;;;;;;;7.65;3.28;;;;;;;;;;4992330;28;20118;-76
2022/08/21 06:14:54;;;;;;;8.38;2.70;;;;;;;;;;5005825;28;20034;-79
2022/08/21 06:17:20;;;;;;;7.68;2.90;;;;;;;;;;4996135;28;20039;-77
2022/08/21 06:19:51;;;;;;;6.47;3.58;;;;;;;;;;4988062;28;20023;-79
2022/08/21 06:22:17;;;;;;;8.50;3.33;;;;;;;;;;4996950;28;20050;-76
2022/08/21 06:24:43;;;;;;;3.28;2.08;;;;;;;;;;4991772;28;20023;-78
2022/08/21 06:27:10;;;;;;;7.97;3.05;;;;;;;;;;4976418;28;20055;-80
2022/08/21 06:29:36;;;;;;;8.93;3.20;;;;;;;;;;4989805;28;20034;-76
2022/08/21 06:32:02;;;;;;;8.05;2.50;;;;;;;;;;4990311;28;20026;-77
2022/08/21 06:34:28;;;;;;;7.63;2.55;;;;;;;;;;4990373;28;20115;-77
2022/08/21 06:36:54;;;;;;;8.38;2.67;;;;;;;;;;5007563;28;20120;-76
2022/08/21 06:39:21;;;;;;;6.45;2.60;;;;;;;;;;4991306;28;20232;-77
2022/08/21 06:41:47;;;;;;;8.48;2.60;;;;;;;;;;4988397;28;20029;-76
2022/08/21 06:44:16;;;;;;;8.25;3.20;;;;;;;;;;4988650;28;20051;-77
2022/08/21 06:46:42;;;;;;;9.93;3.00;;;;;;;;;;4993487;28;20027;-77
2022/08/21 06:49:08;;;;;;;6.60;3.60;;;;;;;;;;4989843;28;20627;-76
2022/08/21 06:51:35;;;;;;;9.10;2.60;;;;;;;;;;5008391;28;20097;-77
2022/08/21 06:54:01;;;;;;;10.88;2.72;;;;;;;;;;5004312;28;20035;-76
2022/08/21 06:56:27;;;;;;;7.70;2.53;;;;;;;;;;5007792;28;20034;-76
2022/08/21 06:58:53;;;;;;;4.32;2.63;;;;;;;;;;4999460;28;20015;-77
2022/08/21 07:01:23;;;;;;;9.20;2.92;;;;;;;;;;4980381;28;20501;-75
2022/08/21 07:03:49;;;;;;;5.15;2.25;;;;;;;;;;4968375;29;20039;-77
2022/08/21 07:06:16;;;;;;;7.70;2.92;;;;;;;;;;4984169;28;20046;-77
2022/08/21 07:08:42;;;;;;;7.88;2.72;;;;;;;;;;4993704;28;20022;-77
2022/08/21 07:11:11;;;;;;;7.60;3.00;;;;;;;;;;4987696;28;20062;-79
2022/08/21 07:13:38;;;;;;;8.30;4.63;;;;;;;;;;4988585;28;20074;-77
2022/08/21 07:16:04;;;;;;;9.00;3.40;;;;;;;;;;4991961;28;20507;-77
2022/08/21 07:18:30;;;;;;;4.70;2.45;;;;;;;;;;4988181;28;20031;-76
2022/08/21 07:20:57;;;;;;;10.32;2.50;;;;;;;;;;4987953;28;20023;-80
2022/08/21 07:23:31;;;;;;;12.63;2.75;;;;;;;;;;4988092;28;20042;-76
2022/08/21 07:25:59;;;;;;;5.13;3.03;;;;;;;;;;4998451;28;20053;-77
2022/08/21 07:28:25;;;;;;;7.95;2.28;;;;;;;;;;4999418;28;20050;-80
2022/08/21 07:30:52;;;;;;;5.95;2.30;;;;;;;;;;4984941;28;20041;-77
2022/08/21 07:33:18;;;;;;;8.88;2.58;;;;;;;;;;4983588;28;20035;-78
2022/08/21 07:35:44;;;;;;;4.25;2.20;;;;;;;;;;4987369;28;20106;-77
2022/08/21 07:38:10;;;;;;;6.65;3.17;;;;;;;;;;4989340;28;20041;-78
2022/08/21 07:40:36;;;;;;;7.38;2.45;;;;;;;;;;4994382;28;20026;-76
2022/08/21 07:43:03;;;;;;;6.43;2.45;;;;;;;;;;4981703;28;20105;-77
2022/08/21 07:45:29;;;;;;;9.48;2.67;;;;;;;;;;5002703;28;20030;-77
2022/08/21 07:47:55;;;;;;;3.70;2.50;;;;;;;;;;4989127;28;20540;-76
2022/08/21 07:50:21;;;;;;;8.55;2.78;;;;;;;;;;4985964;28;20030;-78
2022/08/21 07:52:47;;;;;;;11.13;2.40;;;;;;;;;;4979873;28;20030;-76
2022/08/21 07:55:17;;;;;;;13.52;2.80;;;;;;;;;;4987317;28;20143;-76
2022/08/21 07:57:43;;;;;;;10.55;2.55;;;;;;;;;;4987367;28;20031;-78
2022/08/21 08:00:13;;;;;;;4.35;2.10;;;;;;;;;;4987546;28;20033;-78
2022/08/21 08:02:39;;;;;;;5.15;3.25;;;;;;;;;;4998519;28;20094;-76
2022/08/21 08:05:07;;;;;;;11.07;2.55;;;;;;;;;;4991143;28;20023;-77
2022/08/21 08:07:34;;;;;;;6.93;2.50;;;;;;;;;;4975484;28;20031;-78
2022/08/21 08:10:00;;;;;;;8.18;3.10;;;;;;;;;;5002727;28;20022;-76
2022/08/21 08:12:29;;;;;;;6.22;2.28;;;;;;;;;;5006141;28;20051;-76
2022/08/21 08:14:56;;;;;;;6.55;2.47;;;;;;;;;;4996156;28;20039;-78
2022/08/21 08:17:23;;;;;;;6.55;2.60;;;;;;;;;;4987279;28;20054;-76
2022/08/21 08:19:49;;;;;;;8.63;2.55;;;;;;;;;;4989619;28;20015;-76
2022/08/21 08:22:19;;;;;;;6.80;2.30;;;;;;;;;;4993044;28;20026;-77
2022/08/21 08:24:45;;;;;;;7.43;2.20;;;;;;;;;;4992305;28;20122;-76
2022/08/21 08:27:11;;;;;;;5.72;2.50;;;;;;;;;;4991127;28;20050;-76
2022/08/21 08:29:37;;;;;;;6.85;3.08;;;;;;;;;;4990170;28;20042;-76
2022/08/21 08:32:04;;;;;;;4.28;2.20;;;;;;;;;;4991071;28;20031;-77
2022/08/21 08:34:30;;;;;;;5.32;2.30;;;;;;;;;;4991136;28;20034;-76
2022/08/21 08:36:58;;;;;;;5.82;3.05;;;;;;;;;;4991030;28;20038;-76
2022/08/21 08:39:27;;;;;;;6.30;2.33;;;;;;;;;;4971907;28;20023;-77
2022/08/21 08:42:09;;;;;;;6.35;2.00;;;;;;;;;;4991144;28;20087;-75
2022/08/21 08:44:35;;;;;;;5.15;2.42;;;;;;;;;;4987301;28;20022;-76
2022/08/21 08:47:02;;;;;;;6.32;2.50;;;;;;;;;;4977302;28;20038;-76
2022/08/21 08:49:48;;;;;;;6.63;2.70;;;;;;;;;;4991234;28;20062;-76
2022/08/21 08:52:17;;;;;;;5.55;2.15;;;;;;;;;;4976056;28;20035;-77
2022/08/21 08:54:48;;;;;;;7.68;2.45;;;;;;;;;;4983472;28;20031;-76
2022/08/21 08:57:18;;;;;;;8.35;1.90;;;;;;;;;;4974882;28;20106;-77
2022/08/21 08:59:52;;;;;;;3.78;1.92;;;;;;;;;;4996575;28;20057;-75
2022/08/21 09:02:19;;;;;;;4.85;1.85;;;;;;;;;;4998821;28;20050;-75
2022/08/21 09:04:47;;;;;;;4.40;2.47;;;;;;;;;;4999855;28;20074;-77
2022/08/21 09:07:21;;;;;;;4.57;2.20;;;;;;;;;;4988358;28;20034;-76
2022/08/21 09:09:50;;;;;;;3.63;2.30;;;;;;;;;;4990583;28;20549;-76
2022/08/21 09:12:33;;;;;;;4.55;1.85;;;;;;;;;;4991258;28;20026;-76
2022/08/21 09:15:21;;;;;;;3.95;2.15;;;;;;;;;;4982844;28;20031;-75
2022/08/21 09:17:50;;;;;;;5.40;2.97;;;;;;;;;;4980756;28;20107;-76
2022/08/21 09:20:16;;;;;;;3.75;2.42;;;;;;;;;;4990970;28;20058;-76
2022/08/21 09:23:09;;;;;;;6.25;1.83;;;;;;;;;;4990811;28;20027;-76
2022/08/21 09:25:42;;;;;;;4.55;2.25;;;;;;;;;;5005752;28;20026;-75
2022/08/21 09:28:12;;;;;;;5.50;2.00;;;;;;;;;;4991316;28;20031;-76
2022/08/21 09:30:40;;;;;;;3.75;2.42;;;;;;;;;;4989534;28;20022;-76
2022/08/21 09:33:06;;;;;;;3.83;1.77;;;;;;;;;;4990704;28;20027;-77
2022/08/21 09:35:35;;;;;;;4.65;1.88;;;;;;;;;;4983138;28;20518;-76
2022/08/21 09:38:04;;;;;;;2.78;1.98;;;;;;;;;;4970876;28;20023;-75
2022/08/21 09:40:31;;;;;;;3.05;2.00;;;;;;;;;;4977911;28;20023;-75
2022/08/21 09:42:59;;;;;;;6.35;1.80;;;;;;;;;;4990578;28;20027;-77
2022/08/21 09:45:25;;;;;;;5.22;1.80;;;;;;;;;;4974226;28;20023;-76
2022/08/21 09:47:51;;;;;;;4.22;2.25;;;;;;;;;;4988784;28;20035;-76
2022/08/21 09:50:23;;;;;;;2.15;1.67;;;;;;;;;;4990288;28;20030;-78
2022/08/21 09:52:54;;;;;;;4.32;1.80;;;;;;;;;;4987418;28;20031;-76
2022/08/21 09:58:08;;;;;;;3.63;1.70;;;;;;;;;;4990285;28;20041;-77
2022/08/21 10:00:35;;;;;;;5.75;1.80;;;;;;;;;;4977493;28;20023;-78
2022/08/21 10:03:13;;;;;;;1.73;1.50;;;;;;;;;;5002181;28;20219;-76
2022/08/21 10:05:40;;;;;;;5.25;1.75;;;;;;;;;;5004366;28;20041;-77
2022/08/21 10:08:16;;;;;;;3.38;1.60;;;;;;;;;;4989968;28;20050;-76
2022/08/21 10:10:43;;;;;;;3.10;1.90;;;;;;;;;;4989510;28;20026;-77
2022/08/21 10:13:27;;;;;;;1.60;1.50;;;;;;;;;;4993886;28;20069;-77
2022/08/21 10:16:03;;;;;;;3.00;1.90;;;;;;;;;;5019048;28;20041;-76
2022/08/21 10:18:39;;;;;;;3.08;1.60;;;;;;;;;;4975597;28;20039;-77
2022/08/21 10:21:11;;;;;;;3.40;1.63;;;;;;;;;;4971071;29;20050;-77
2022/08/21 10:23:40;;;;;;;4.20;1.60;;;;;;;;;;4984634;28;20030;-77
2022/08/21 10:26:26;;;;;;;3.38;1.60;;;;;;;;;;5004657;28;20026;-76
2022/08/21 10:29:15;;;;;;;3.90;1.55;;;;;;;;;;4959442;28;20047;-76
2022/08/21 10:31:54;;;;;;;3.58;1.70;;;;;;;;;;4964033;28;20185;-76
2022/08/21 10:34:20;;;;;;;4.00;2.15;;;;;;;;;;5004004;28;20022;-76
2022/08/21 10:36:49;;;;;;;4.28;1.88;;;;;;;;;;4990201;28;20026;-76
2022/08/21 10:39:28;;;;;;;3.25;1.77;;;;;;;;;;5012150;28;20444;-76
2022/08/21 10:41:54;;;;;;;2.53;1.50;;;;;;;;;;4990042;28;20018;-82
2022/08/21 10:44:23;;;;;;;3.13;2.28;;;;;;;;;;4995368;28;20026;-84
2022/08/21 10:47:05;;;;;;;4.93;1.60;;;;;;;;;;4984125;28;20026;-81
2022/08/21 10:49:39;;;;;;;2.60;1.70;;;;;;;;;;4990701;28;20101;-79
2022/08/21 10:52:25;;;;;;;2.17;1.60;;;;;;;;;;4980417;28;20030;-85
2022/08/21 10:54:56;;;;;;;3.10;1.67;;;;;;;;;;4984918;28;20089;-78
2022/08/21 10:57:41;;;;;;;3.05;1.60;;;;;;;;;;4984350;28;20058;-76
2022/08/21 11:00:11;;;;;;;1.98;1.60;;;;;;;;;;4978665;28;20018;-77
2022/08/21 11:02:47;;;;;;;3.22;2.05;;;;;;;;;;4985482;28;20023;-80
2022/08/21 11:05:16;;;;;;;3.60;1.60;;;;;;;;;;4984698;28;20154;-76
2022/08/21 11:07:57;;;;;;;3.58;2.10;;;;;;;;;;4974905;28;20488;-82
2022/08/21 11:10:26;;;;;;;2.13;1.50;;;;;;;;;;4991987;28;20018;-82
2022/08/21 11:12:57;;;;;;;2.95;2.00;;;;;;;;;;4979694;28;20039;-83
2022/08/21 11:15:26;;;;;;;3.15;1.60;;;;;;;;;;4988166;28;20157;-80
2022/08/21 11:18:03;;;;;;;1.55;1.45;;;;;;;;;;4988263;28;20038;-80
2022/08/21 11:20:32;;;;;;;2.00;1.50;;;;;;;;;;4982106;28;20018;-85
2022/08/21 11:23:12;;;;;;;2.50;1.40;;;;;;;;;;4977951;28;20057;-86
2022/08/21 11:25:40;;;;;;;2.92;1.52;;;;;;;;;;4992636;28;20019;-77
2022/08/21 11:28:18;;;;;;;4.93;1.90;;;;;;;;;;4984174;28;20057;-77
2022/08/21 11:30:58;;;;;;;3.25;1.60;;;;;;;;;;4996003;28;20026;-78
2022/08/21 11:33:33;;;;;;;3.38;1.60;;;;;;;;;;4993322;28;20427;-79
2022/08/21 11:36:03;;;;;;;;;;;;;;;;;;4979487;28;20081;-83
2022/08/21 11:38:43;;;;;;;1.63;1.52;;;;;;;;;;4983689;28;19910;-77
2022/08/21 11:41:28;;;;;;;2.60;1.70;;;;;;;;;;4983593;28;20678;-84
2022/08/21 11:44:01;;;;;;;2.10;1.52;;;;;;;;;;4978645;28;20030;-79
2022/08/21 11:46:27;;;;;;;2.75;1.70;;;;;;;;;;4969431;28;20429;-86
2022/08/21 11:49:09;;;;;;;1.58;1.48;;;;;;;;;;4977373;28;20027;-82
2022/08/21 11:51:49;;;;;;;3.13;1.65;;;;;;;;;;4978418;28;20121;-81
2022/08/21 11:54:29;;;;;;;3.30;2.05;;;;;;;;;;4969377;28;20265;-84
2022/08/21 11:57:02;;;;;;;2.50;1.70;;;;;;;;;;4974873;28;20031;-81
2022/08/21 11:59:35;;;;;;;1.95;1.80;;;;;;;;;;4979881;28;20031;-83
2022/08/21 12:02:02;;;;;;;3.05;1.80;;;;;;;;;;4985391;28;20035;-87
2022/08/21 12:04:29;;;;;;;4.93;1.90;;;;;;;;;;4977236;28;20023;-88
2022/08/21 12:06:56;;;;;;;3.58;1.70;;;;;;;;;;4975433;28;20336;-85
2022/08/21 12:09:25;;;;;;;2.35;1.70;;;;;;;;;;5000671;28;20033;-86
2022/08/21 12:12:06;;;;;;;1.80;1.70;;;;;;;;;;4964808;28;20043;-87
2022/08/21 12:14:37;;;;;;;3.00;1.90;;;;;;;;;;4972013;28;20037;-75
2022/08/21 12:17:08;;;;;;;2.45;1.90;;;;;;;;;;4985450;28;20034;-79
2022/08/21 12:19:36;;;;;;;2.10;1.85;;;;;;;;;;4981021;28;20104;-86
2022/08/21 12:22:02;;;;;;;2.83;1.80;;;;;;;;;;4979084;28;20035;-82
2022/08/21 12:24:28;;;;;;;3.33;2.00;;;;;;;;;;4972759;28;20022;-85
2022/08/21 12:26:56;;;;;;;2.90;1.80;;;;;;;;;;4972294;28;20133;-80
2022/08/21 12:29:24;;;;;;;4.13;1.88;;;;;;;;;;4972496;28;20089;-86
2022/08/21 12:31:56;;;;;;;2.88;1.70;;;;;;;;;;4973173;28;20027;-88
2022/08/21 12:34:30;;;;;;;2.15;1.60;;;;;;;;;;4966097;28;20560;-80
2022/08/21 12:37:01;;;;;;;2.67;1.70;;;;;;;;;;4967225;28;20039;-79
2022/08/21 12:39:29;;;;;;;2.58;1.60;;;;;;;;;;4972471;28;20035;-84
2022/08/21 12:41:58;;;;;;;3.63;1.83;;;;;;;;;;4964872;28;20026;-82
2022/08/21 12:44:36;;;;;;;4.18;1.73;;;;;;;;;;4963887;28;20062;-80
2022/08/21 12:47:05;;;;;;;3.65;1.80;;;;;;;;;;4965335;28;20042;-78
2022/08/21 12:49:43;;;;;;;2.03;1.60;;;;;;;;;;4961540;28;20396;-83
2022/08/21 12:52:14;;;;;;;2.42;1.75;;;;;;;;;;4966897;28;20035;-85
2022/08/21 12:54:44;;;;;;;2.80;1.83;;;;;;;;;;4968588;28;20023;-78
2022/08/21 12:57:27;;;;;;;2.95;1.75;;;;;;;;;;4963720;28;20126;-79
2022/08/21 12:59:58;;;;;;;3.67;1.80;;;;;;;;;;4960955;28;20118;-83
2022/08/21 13:02:26;;;;;;;2.53;1.70;;;;;;;;;;4969234;28;20081;-80
2022/08/21 13:04:56;;;;;;;3.22;1.70;;;;;;;;;;4970661;28;20030;-80
2022/08/21 13:07:30;;;;;;;2.42;1.70;;;;;;;;;;4966591;28;20113;-78
2022/08/21 13:10:02;;;;;;;5.03;1.80;;;;;;;;;;4964567;28;20093;-78
2022/08/21 13:12:29;;;;;;;3.97;2.13;;;;;;;;;;4970240;28;20051;-79
2022/08/21 13:15:03;;;;;;;2.67;1.73;;;;;;;;;;4981633;28;20035;-78
2022/08/21 13:17:31;;;;;;;3.22;1.70;;;;;;;;;;4966495;28;20035;-80
2022/08/21 13:20:18;;;;;;;3.35;1.90;;;;;;;;;;4966100;28;20401;-80
2022/08/21 13:22:44;;;;;;;3.35;1.80;;;;;;;;;;4962928;28;20050;-82
2022/08/21 13:25:12;;;;;;;3.53;1.80;;;;;;;;;;4963224;28;20027;-84
2022/08/21 13:27:38;;;;;;;2.65;1.75;;;;;;;;;;4980007;28;20038;-82
2022/08/21 13:30:08;;;;;;;5.00;2.13;;;;;;;;;;4963483;28;20042;-82
2022/08/21 13:32:37;;;;;;;3.22;1.65;;;;;;;;;;4964959;28;20121;-81
2022/08/21 13:35:29;;;;;;;5.50;2.15;;;;;;;;;;4962581;28;20027;-83
2022/08/21 13:37:55;;;;;;;3.55;1.70;;;;;;;;;;4962706;28;20071;-81
2022/08/21 13:40:31;;;;;;;2.20;1.60;;;;;;;;;;4965584;28;20114;-80
2022/08/21 13:42:58;;;;;;;4.32;1.85;;;;;;;;;;4979585;28;20413;-78
2022/08/21 13:45:31;;;;;;;2.10;1.70;;;;;;;;;;4965373;28;20019;-78
2022/08/21 13:47:57;;;;;;;3.17;1.65;;;;;;;;;;4966410;28;20481;-82
2022/08/21 13:50:24;;;;;;;3.38;1.67;;;;;;;;;;4971013;28;20035;-80
2022/08/21 13:52:58;;;;;;;2.83;1.70;;;;;;;;;;4965375;28;20038;-77
2022/08/21 13:55:24;;;;;;;;;;;;;;;;;;4981096;28;20034;-77
2022/08/21 13:57:59;;;;;;;2.40;1.60;;;;;;;;;;4967443;28;21015;-77
2022/08/21 14:00:27;;;;;;;5.28;1.77;;;;;;;;;;4969782;28;20037;-79
2022/08/21 14:02:54;;;;;;;2.88;1.60;;;;;;;;;;4971967;28;20037;-80
2022/08/21 14:05:22;;;;;;;2.33;1.70;;;;;;;;;;4965287;28;20505;-78
2022/08/21 14:07:49;;;;;;;3.53;1.85;;;;;;;;;;4966900;28;20395;-79
2022/08/21 14:10:19;;;;;;;3.45;1.90;;;;;;;;;;4962482;28;20060;-82
2022/08/21 14:12:48;;;;;;;3.50;1.90;;;;;;;;;;4970397;28;20166;-80
2022/08/21 14:15:16;;;;;;;4.85;1.70;;;;;;;;;;4972285;28;20041;-79
2022/08/21 14:17:42;;;;;;;2.05;1.55;;;;;;;;;;4967518;28;20556;-79
2022/08/21 14:20:13;;;;;;;2.80;1.70;;;;;;;;;;4968580;28;20252;-80
2022/08/21 14:22:46;;;;;;;7.90;2.80;;;;;;;;;;4969433;28;20523;-80
2022/08/21 14:25:28;;;;;;;2.63;1.67;;;;;;;;;;4968132;28;20023;-80
2022/08/21 14:27:56;;;;;;;2.83;1.60;;;;;;;;;;4968030;28;20162;-80
2022/08/21 14:30:31;;;;;;;3.08;1.55;;;;;;;;;;4966496;28;20057;-78
2022/08/21 14:32:57;;;;;;;2.70;1.60;;;;;;;;;;4968072;28;20335;-79
2022/08/21 14:35:23;;;;;;;4.18;1.70;;;;;;;;;;4967067;28;20027;-79
2022/08/21 14:37:50;;;;;;;2.92;1.60;;;;;;;;;;4961866;28;20541;-79
2022/08/21 14:40:16;;;;;;;2.85;1.90;;;;;;;;;;4965373;28;20041;-79
2022/08/21 14:42:43;;;;;;;2.35;1.80;;;;;;;;;;4965268;28;20022;-79
2022/08/21 14:45:19;;;;;;;3.38;1.50;;;;;;;;;;4964442;28;20449;-80
2022/08/21 14:47:45;;;;;;;3.60;1.70;;;;;;;;;;4964678;28;20113;-79
2022/08/21 14:50:12;;;;;;;2.90;1.80;;;;;;;;;;4970090;28;20405;-79
2022/08/21 14:52:39;;;;;;;4.03;1.88;;;;;;;;;;4965689;28;20433;-80
2022/08/21 14:55:06;;;;;;;3.35;1.85;;;;;;;;;;4964560;28;20027;-80